This is the latest recevied weather packets stored in our database for station/object K6QM-1. If no packets are shown the sender has not sent any weather packets the latest 10 day(s).
| Time | Temp. | Humidity | Pressure | Rain* | Wind** | Luminosity | Snow |
|---|---|---|---|---|---|---|---|
| 1777485308 | 22.22° C | 47% | 1018.8 hPa | - | - | - | - |
| 1777484408 | 21.67° C | 48% | 1018.6 hPa | - | - | - | - |
| 1777483509 | 21.67° C | 48% | 1018.8 hPa | - | - | - | - |
| 1777482608 | 21.67° C | 46% | 1018.8 hPa | - | - | - | - |
| 1777481708 | 21.11° C | 49% | 1018.9 hPa | - | - | - | - |
| 1777480808 | 19.44° C | 51% | 1019.2 hPa | - | - | - | - |
| 1777479908 | 18.89° C | 54% | 1019.3 hPa | - | - | - | - |
| 1777479008 | 17.78° C | 57% | 1019.3 hPa | - | - | - | - |
| 1777478108 | 17.22° C | 60% | 1019.4 hPa | - | - | - | - |
| 1777477208 | 13.89° C | 63% | 1015.7 hPa | - | - | - | - |
| 1777476307 | 15° C | 66% | 1019.2 hPa | - | - | - | - |
| 1777475408 | 14.44° C | 66% | 1019.2 hPa | - | - | - | - |
| 1777473607 | 13.89° C | 65% | 1019.2 hPa | - | - | - | - |
| 1777472707 | 13.33° C | 65% | 1019.5 hPa | - | - | - | - |
| 1777471807 | 13.33° C | 64% | 1019.4 hPa | - | - | - | - |
| 1777470907 | 13.33° C | 64% | 1019.3 hPa | - | - | - | - |
| 1777470007 | 12.22° C | 63% | 1018.1 hPa | - | - | - | - |
| 1777469107 | 12.78° C | 63% | 1019.6 hPa | - | - | - | - |
| 1777468208 | 12.78° C | 63% | 1019.2 hPa | - | - | - | - |
| 1777467307 | 12.78° C | 64% | 1019.1 hPa | - | - | - | - |
| 1777466406 | 13.33° C | 63% | 1019 hPa | - | - | - | - |
| 1777465506 | 13.33° C | 63% | 1018.9 hPa | - | - | - | - |
| 1777464606 | 13.33° C | 63% | 1018.9 hPa | - | - | - | - |
| 1777463706 | 13.33° C | 62% | 1018.7 hPa | - | - | - | - |
| 1777462806 | 13.89° C | 62% | 1018.6 hPa | - | - | - | - |
* Rain since midnight (hover to see other rain measurements)
** Current wind speed in m/s (hover to see current wind gust speed)